Time;durP1;ratioP1;P1;durP2;ratioP2;P2;SDS_P1;SDS_P2;PMS_P1;PMS_P2;Temp;Humidity;BMP_temperature;BMP_pressure;BME280_temperature;BME280_humidity;BME280_pressure;Samples;Min_cycle;Max_cycle;Signal;HPM_P1;HPM_P2
2022/11/02 00:01:50;;;;;;;8.67;7.73;;;10.30;99.90;;;;;;4938774;29;20591;-69
2022/11/02 00:04:15;;;;;;;9.03;8.13;;;10.30;99.90;;;;;;4933898;29;20219;-70
2022/11/02 00:06:41;;;;;;;8.50;7.67;;;10.20;99.90;;;;;;4938982;29;20565;-69
2022/11/02 00:09:07;;;;;;;9.87;7.83;;;10.20;99.90;;;;;;4938685;29;20193;-70
2022/11/02 00:11:32;;;;;;;7.87;7.07;;;10.20;99.90;;;;;;4938922;29;20921;-69
2022/11/02 00:13:58;;;;;;;9.00;8.10;;;10.20;99.90;;;;;;4936546;29;20216;-69
2022/11/02 00:16:24;;;;;;;8.40;7.60;;;10.20;99.90;;;;;;4939131;29;20289;-70
2022/11/02 00:18:54;;;;;;;8.57;7.67;;;10.20;99.90;;;;;;4939001;28;20218;-69
2022/11/02 00:21:21;;;;;;;9.30;8.10;;;10.20;99.90;;;;;;4938707;29;20209;-70
2022/11/02 00:23:48;;;;;;;8.70;7.80;;;10.20;99.90;;;;;;4936628;29;20251;-69
2022/11/02 00:26:14;;;;;;;9.60;8.03;;;10.20;99.90;;;;;;4938226;29;20711;-71
2022/11/02 00:28:40;;;;;;;9.30;8.43;;;10.20;99.90;;;;;;4938822;29;20203;-70
2022/11/02 00:31:05;;;;;;;10.13;8.73;;;10.20;99.90;;;;;;4938815;29;20707;-70
2022/11/02 00:33:31;;;;;;;10.13;8.47;;;10.20;99.90;;;;;;4934995;28;20205;-71
2022/11/02 00:35:57;;;;;;;11.10;8.37;;;10.20;99.90;;;;;;4937437;29;20648;-70
2022/11/02 00:38:23;;;;;;;13.57;9.37;;;10.10;99.90;;;;;;4931340;29;20764;-70
2022/11/02 00:40:48;;;;;;;9.87;8.67;;;10.10;99.90;;;;;;4933973;29;20295;-70
2022/11/02 00:43:14;;;;;;;11.27;8.30;;;10.10;99.90;;;;;;4938696;29;20208;-70
2022/11/02 00:45:39;;;;;;;9.50;7.73;;;10.00;99.90;;;;;;4938488;29;20285;-71
2022/11/02 00:48:05;;;;;;;10.47;8.47;;;9.90;99.90;;;;;;4933959;29;20260;-71
2022/11/02 00:50:31;;;;;;;9.07;7.83;;;10.00;99.90;;;;;;4937009;29;20294;-72
2022/11/02 00:52:56;;;;;;;13.40;7.73;;;10.00;99.90;;;;;;4937216;28;20220;-71
2022/11/02 00:55:22;;;;;;;10.33;8.90;;;9.90;99.90;;;;;;4935363;29;20218;-71
2022/11/02 00:57:47;;;;;;;9.40;8.40;;;9.90;99.90;;;;;;4933589;29;20614;-70
2022/11/02 01:00:14;;;;;;;11.20;8.27;;;9.90;99.90;;;;;;4934624;29;20227;-71
2022/11/02 01:02:39;;;;;;;10.03;8.27;;;9.90;99.90;;;;;;4937108;29;20209;-70
2022/11/02 01:05:06;;;;;;;10.83;7.93;;;9.90;99.90;;;;;;4931994;29;20204;-70
2022/11/02 01:07:32;;;;;;;8.47;7.63;;;9.90;99.90;;;;;;4938399;29;20212;-71
2022/11/02 01:09:57;;;;;;;9.60;7.27;;;9.80;99.90;;;;;;4938009;29;20265;-70
2022/11/02 01:12:23;;;;;;;10.70;7.20;;;9.80;99.90;;;;;;4938405;29;20206;-71
2022/11/02 01:14:49;;;;;;;10.37;7.73;;;9.70;99.90;;;;;;4938278;29;20222;-71
2022/11/02 01:17:16;;;;;;;8.87;7.13;;;9.70;99.90;;;;;;4937566;29;20617;-71
2022/11/02 01:19:41;;;;;;;10.53;8.17;;;9.70;99.90;;;;;;4933439;29;20652;-70
2022/11/02 01:22:07;;;;;;;8.07;7.27;;;9.60;99.90;;;;;;4935820;29;20203;-70
2022/11/02 01:24:32;;;;;;;8.37;7.50;;;9.60;99.90;;;;;;4932715;29;20576;-70
2022/11/02 01:26:58;;;;;;;8.27;7.40;;;9.60;99.90;;;;;;4932088;29;20198;-68
2022/11/02 01:29:23;;;;;;;6.80;6.20;;;9.50;99.90;;;;;;4932453;29;20586;-70
2022/11/02 01:31:50;;;;;;;8.33;7.40;;;9.50;99.90;;;;;;4925308;29;20203;-71
2022/11/02 01:34:16;;;;;;;8.87;6.40;;;9.50;99.90;;;;;;4937795;29;20215;-73
2022/11/02 01:36:44;;;;;;;8.33;6.17;;;9.60;99.90;;;;;;4938220;29;20207;-70
2022/11/02 01:39:09;;;;;;;7.03;5.80;;;9.60;99.90;;;;;;4937856;29;20219;-69
2022/11/02 01:41:35;;;;;;;7.90;6.67;;;9.50;99.90;;;;;;4936344;29;20207;-68
2022/11/02 01:44:01;;;;;;;7.43;6.43;;;9.50;99.90;;;;;;4934415;29;20198;-69
2022/11/02 01:46:38;;;;;;;6.63;5.53;;;9.50;99.90;;;;;;4935354;29;20198;-68
2022/11/02 01:49:09;;;;;;;6.50;5.90;;;9.50;99.90;;;;;;4936240;29;20263;-69
2022/11/02 01:51:41;;;;;;;7.07;5.70;;;9.50;99.90;;;;;;4932633;29;20200;-69
2022/11/02 01:54:28;;;;;;;7.30;5.57;;;9.50;99.90;;;;;;4941427;28;20217;-69
2022/11/02 01:57:04;;;;;;;6.20;5.43;;;9.40;99.90;;;;;;4939637;29;20262;-69
2022/11/02 01:59:58;;;;;;;9.17;5.00;;;9.40;99.90;;;;;;4931769;29;20218;-69
2022/11/02 02:02:25;;;;;;;5.87;5.27;;;9.40;99.90;;;;;;4934113;29;20258;-68
2022/11/02 02:05:02;;;;;;;8.77;5.40;;;9.40;99.90;;;;;;4933850;29;20203;-69
2022/11/02 02:07:30;;;;;;;8.27;5.17;;;9.40;99.90;;;;;;4929408;29;20203;-69
2022/11/02 02:09:56;;;;;;;5.70;5.17;;;9.40;99.90;;;;;;4931585;29;20277;-68
2022/11/02 02:12:23;;;;;;;7.33;5.17;;;9.40;99.90;;;;;;4932108;29;20196;-69
2022/11/02 02:14:49;;;;;;;10.13;5.10;;;9.30;99.90;;;;;;4930929;29;20210;-69
2022/11/02 02:17:40;;;;;;;6.57;5.30;;;9.30;99.90;;;;;;4931705;29;20630;-69
2022/11/02 02:20:43;;;;;;;6.63;5.57;;;9.30;99.90;;;;;;4924514;29;20225;-69
2022/11/02 02:23:35;;;;;;;11.40;5.27;;;9.20;99.90;;;;;;4930897;29;20529;-68
2022/11/02 02:26:52;;;;;;;5.37;4.50;;;9.20;99.90;;;;;;4925153;29;20203;-68
2022/11/02 02:29:27;;;;;;;7.80;4.60;;;9.30;99.90;;;;;;4925378;29;20210;-68
2022/11/02 02:32:12;;;;;;;5.93;5.23;;;9.20;99.90;;;;;;4931558;29;20568;-68
2022/11/02 02:35:02;;;;;;;5.43;4.93;;;9.20;99.90;;;;;;4927019;29;20233;-68
2022/11/02 02:37:35;;;;;;;5.40;4.33;;;9.20;99.90;;;;;;4929800;29;20237;-69
2022/11/02 02:40:07;;;;;;;10.43;4.77;;;9.20;99.90;;;;;;4931093;29;20223;-68
2022/11/02 02:42:38;;;;;;;4.93;4.43;;;9.30;99.90;;;;;;4931260;29;20668;-68
2022/11/02 02:45:19;;;;;;;6.30;4.67;;;9.20;99.90;;;;;;4928696;29;20670;-68
2022/11/02 02:47:57;;;;;;;7.27;4.83;;;9.20;99.90;;;;;;4930724;29;20803;-68
2022/11/02 02:50:28;;;;;;;5.60;3.93;;;9.20;99.90;;;;;;4924238;29;20207;-68
2022/11/02 02:52:55;;;;;;;8.10;4.53;;;9.20;99.90;;;;;;4930890;28;20198;-68
2022/11/02 02:55:36;;;;;;;6.60;4.23;;;9.20;99.90;;;;;;4934382;28;20391;-67
2022/11/02 02:58:02;;;;;;;4.60;3.90;;;9.20;99.90;;;;;;4929633;29;20321;-68
2022/11/02 03:00:32;;;;;;;4.57;4.00;;;9.20;99.90;;;;;;4927299;29;20386;-68
2022/11/02 03:03:01;;;;;;;6.37;3.93;;;9.20;99.90;;;;;;4929066;29;20323;-67
2022/11/02 03:05:33;;;;;;;5.33;3.70;;;9.20;99.90;;;;;;4930789;29;20449;-68
2022/11/02 03:08:04;;;;;;;9.10;4.03;;;9.20;99.90;;;;;;4930292;29;20202;-67
2022/11/02 03:10:46;;;;;;;5.33;4.00;;;9.10;99.90;;;;;;4929643;29;20206;-69
2022/11/02 03:13:31;;;;;;;4.27;3.83;;;9.10;99.90;;;;;;4930451;29;20211;-69
2022/11/02 03:16:18;;;;;;;4.50;3.80;;;9.10;99.90;;;;;;4925018;29;20460;-70
2022/11/02 03:18:51;;;;;;;4.83;3.50;;;9.10;99.90;;;;;;4926145;29;20256;-70
2022/11/02 03:21:37;;;;;;;4.47;3.20;;;9.00;99.90;;;;;;4929981;29;20202;-72
2022/11/02 03:24:25;;;;;;;3.80;3.13;;;9.00;99.90;;;;;;4924264;29;20203;-72
2022/11/02 03:27:05;;;;;;;5.80;3.63;;;9.00;99.90;;;;;;4927879;29;20270;-69
2022/11/02 03:29:56;;;;;;;10.03;4.20;;;8.90;99.90;;;;;;4926516;29;20203;-71
2022/11/02 03:32:28;;;;;;;6.27;2.90;;;8.90;99.90;;;;;;4930171;29;20293;-69
2022/11/02 03:35:05;;;;;;;3.47;2.57;;;8.90;99.90;;;;;;4932258;29;20207;-70
2022/11/02 03:37:39;;;;;;;5.67;3.43;;;8.90;99.90;;;;;;4933380;29;20206;-70
2022/11/02 03:40:24;;;;;;;4.87;3.07;;;8.90;99.90;;;;;;4937828;29;20222;-66
2022/11/02 03:42:52;;;;;;;4.87;3.00;;;8.90;99.90;;;;;;4939611;29;20281;-76
2022/11/02 03:45:22;;;;;;;3.00;2.77;;;8.90;99.90;;;;;;4937243;29;20213;-69
2022/11/02 03:47:52;;;;;;;6.03;3.33;;;8.90;99.90;;;;;;4934805;29;20230;-69
2022/11/02 03:50:21;;;;;;;3.67;2.73;;;8.90;99.90;;;;;;4934390;29;20713;-70
2022/11/02 03:52:53;;;;;;;7.73;2.90;;;8.90;99.90;;;;;;4938667;28;20202;-69
2022/11/02 03:55:28;;;;;;;7.07;3.07;;;8.90;99.90;;;;;;4938901;29;20561;-68
2022/11/02 03:57:53;;;;;;;4.53;2.67;;;8.90;99.90;;;;;;4939362;29;20206;-69
2022/11/02 04:00:24;;;;;;;5.23;2.80;;;8.90;99.90;;;;;;4934450;29;20225;-69
2022/11/02 04:03:01;;;;;;;2.80;2.57;;;8.90;99.90;;;;;;4939047;29;20201;-69
2022/11/02 04:05:33;;;;;;;3.77;2.50;;;8.90;99.90;;;;;;4933222;29;20210;-68
2022/11/02 04:16:20;;;;;;;6.27;3.33;;;8.70;99.90;;;;;;4923278;29;20221;-70
2022/11/02 04:21:30;;;;;;;5.07;3.30;;;8.70;99.90;;;;;;4933632;29;20217;-68
2022/11/02 04:26:41;;;;;;;3.17;2.73;;;8.60;99.90;;;;;;4919432;29;20282;-68
2022/11/02 04:29:07;;;;;;;8.63;3.60;;;8.70;99.90;;;;;;4919617;29;20661;-68
2022/11/02 04:31:32;;;;;;;6.30;3.53;;;8.60;99.90;;;;;;4923261;29;20232;-66
2022/11/02 04:33:58;;;;;;;3.70;2.80;;;8.60;99.90;;;;;;4937541;29;20217;-67
2022/11/02 04:36:25;;;;;;;5.00;2.90;;;8.60;99.90;;;;;;4932121;29;20222;-66
2022/11/02 04:38:50;;;;;;;7.27;4.50;;;8.60;99.90;;;;;;4915666;29;20321;-68
2022/11/02 04:44:03;;;;;;;6.80;3.50;;;8.60;99.90;;;;;;4918656;29;20211;-69
2022/11/02 04:46:31;;;;;;;8.00;3.60;;;8.60;99.90;;;;;;4922475;29;20350;-70
2022/11/02 04:48:56;;;;;;;9.10;3.80;;;8.50;99.90;;;;;;4923522;29;20264;-68
2022/11/02 04:51:23;;;;;;;10.17;3.10;;;8.50;99.90;;;;;;4931586;29;20222;-69
2022/11/02 04:53:51;;;;;;;10.50;3.03;;;8.40;99.90;;;;;;4938280;28;20712;-69
2022/11/02 04:56:17;;;;;;;7.77;3.23;;;8.40;99.90;;;;;;4938437;29;20210;-70
2022/11/02 04:58:42;;;;;;;3.33;2.77;;;8.40;99.90;;;;;;4938091;29;20202;-69
2022/11/02 05:01:12;;;;;;;8.20;3.30;;;8.30;99.90;;;;;;4938199;29;20197;-68
2022/11/02 05:03:37;;;;;;;3.60;2.83;;;8.30;99.90;;;;;;4933781;29;20657;-68
2022/11/02 05:06:03;;;;;;;8.30;3.23;;;8.30;99.90;;;;;;4931338;29;20249;-69
2022/11/02 05:08:29;;;;;;;5.20;3.10;;;8.40;99.90;;;;;;4936239;29;20221;-66
2022/11/02 05:10:56;;;;;;;5.90;3.10;;;8.30;99.90;;;;;;4934584;29;20198;-66
2022/11/02 05:13:22;;;;;;;6.00;4.00;;;8.30;99.90;;;;;;4938351;29;20605;-66
2022/11/02 05:15:48;;;;;;;5.83;3.13;;;8.30;99.90;;;;;;4938054;29;20256;-66
2022/11/02 05:18:13;;;;;;;11.00;2.97;;;8.30;99.90;;;;;;4926550;29;20694;-66
2022/11/02 05:20:39;;;;;;;4.70;2.90;;;8.30;99.90;;;;;;4936642;29;20217;-66
2022/11/02 05:23:05;;;;;;;7.17;2.83;;;8.30;99.90;;;;;;4936783;29;20202;-67
2022/11/02 05:25:31;;;;;;;7.73;2.90;;;8.30;99.90;;;;;;4937203;29;20818;-68
2022/11/02 05:27:57;;;;;;;4.03;2.57;;;8.30;99.90;;;;;;4937004;29;20681;-68
2022/11/02 05:30:22;;;;;;;3.73;2.23;;;8.30;99.90;;;;;;4939410;29;20206;-69
2022/11/02 05:32:48;;;;;;;10.03;3.20;;;8.30;99.90;;;;;;4937866;29;20202;-68
2022/11/02 05:35:13;;;;;;;5.63;3.10;;;8.40;99.90;;;;;;4941597;29;20229;-70
2022/11/02 05:37:39;;;;;;;7.13;3.30;;;8.40;99.90;;;;;;4941880;29;20681;-69
2022/11/02 05:40:05;;;;;;;8.73;3.20;;;8.40;99.90;;;;;;4940265;29;20300;-69
2022/11/02 05:42:31;;;;;;;6.80;2.43;;;8.30;99.90;;;;;;4938929;29;20198;-69
2022/11/02 05:44:56;;;;;;;4.63;2.70;;;8.30;99.90;;;;;;4940879;29;20210;-70
2022/11/02 05:47:21;;;;;;;7.80;3.47;;;8.30;99.90;;;;;;4936872;29;20225;-69
2022/11/02 05:49:47;;;;;;;7.80;2.90;;;8.20;99.90;;;;;;4941682;29;20281;-69
2022/11/02 05:52:12;;;;;;;5.27;2.77;;;8.20;99.90;;;;;;4941275;29;20576;-69
2022/11/02 05:54:38;;;;;;;7.20;2.60;;;8.20;99.90;;;;;;4936744;28;20293;-69
2022/11/02 05:57:03;;;;;;;6.93;2.83;;;8.20;99.90;;;;;;4935296;29;20220;-69
2022/11/02 05:59:29;;;;;;;5.13;3.07;;;8.20;99.90;;;;;;4939260;29;20305;-69
2022/11/02 06:01:54;;;;;;;7.27;3.40;;;8.20;99.90;;;;;;4935637;29;20210;-69
2022/11/02 06:04:20;;;;;;;7.47;2.70;;;8.20;99.90;;;;;;4934885;29;20317;-69
2022/11/02 06:06:45;;;;;;;7.53;3.03;;;8.20;99.90;;;;;;4941017;29;20210;-68
2022/11/02 06:09:11;;;;;;;5.10;2.37;;;8.20;99.90;;;;;;4938546;29;20523;-68
2022/11/02 06:11:36;;;;;;;7.10;2.70;;;8.20;99.90;;;;;;4941491;29;20213;-69
2022/11/02 06:14:05;;;;;;;8.83;2.70;;;8.20;99.90;;;;;;4941102;29;20572;-69
2022/11/02 06:16:30;;;;;;;6.53;2.47;;;8.20;99.90;;;;;;4940754;29;20222;-69
2022/11/02 06:18:56;;;;;;;7.23;2.30;;;8.20;99.90;;;;;;4941043;29;20680;-70
2022/11/02 06:21:21;;;;;;;3.30;2.20;;;8.20;99.90;;;;;;4941029;29;20912;-69
2022/11/02 06:23:47;;;;;;;10.50;3.17;;;8.20;99.90;;;;;;4938788;29;20257;-72
2022/11/02 06:26:13;;;;;;;4.87;2.67;;;8.20;99.90;;;;;;4940626;29;20672;-69
2022/11/02 06:28:39;;;;;;;6.53;2.77;;;8.20;99.90;;;;;;4941006;29;20694;-68
2022/11/02 06:31:04;;;;;;;6.00;2.93;;;8.30;99.90;;;;;;4940549;28;20313;-69
2022/11/02 06:33:30;;;;;;;5.63;3.10;;;8.30;99.90;;;;;;4940731;29;20206;-69
2022/11/02 06:35:55;;;;;;;10.27;3.00;;;8.40;99.90;;;;;;4938603;29;20322;-69
2022/11/02 06:38:21;;;;;;;9.23;2.87;;;8.40;99.90;;;;;;4940771;29;20194;-68
2022/11/02 06:41:02;;;;;;;6.03;2.50;;;8.40;99.90;;;;;;4935874;29;20320;-67
2022/11/02 06:43:27;;;;;;;7.17;2.10;;;8.40;99.90;;;;;;4941053;29;20199;-68
2022/11/02 06:45:55;;;;;;;4.53;2.30;;;8.50;99.90;;;;;;4938481;29;20561;-68
2022/11/02 06:48:20;;;;;;;3.80;2.97;;;8.50;99.90;;;;;;4935762;29;20226;-67
2022/11/02 06:50:46;;;;;;;5.83;2.70;;;8.50;99.90;;;;;;4940610;29;20755;-68
2022/11/02 06:53:11;;;;;;;8.67;2.57;;;8.50;99.90;;;;;;4931069;28;20760;-70
2022/11/02 06:55:37;;;;;;;4.97;2.50;;;8.60;99.90;;;;;;4933049;29;20212;-68
2022/11/02 06:58:02;;;;;;;3.53;2.23;;;8.60;99.90;;;;;;4940346;29;20767;-68
2022/11/02 07:00:28;;;;;;;6.17;2.33;;;8.60;99.90;;;;;;4939897;29;20248;-69
2022/11/02 07:03:06;;;;;;;8.07;2.47;;;8.60;99.90;;;;;;4939950;29;21379;-71
2022/11/02 07:05:32;;;;;;;6.40;2.37;;;8.70;99.90;;;;;;4937973;28;20581;-70
2022/11/02 07:07:58;;;;;;;5.37;3.47;;;8.80;99.90;;;;;;4937950;29;20212;-71
2022/11/02 07:10:24;;;;;;;7.90;1.90;;;8.90;99.90;;;;;;4934374;29;20198;-70
2022/11/02 07:12:55;;;;;;;6.57;2.53;;;9.00;99.90;;;;;;4938063;29;20209;-70
2022/11/02 07:15:22;;;;;;;6.30;2.80;;;9.00;99.90;;;;;;4937980;29;20212;-70
2022/11/02 07:17:47;;;;;;;3.20;1.70;;;9.00;99.90;;;;;;4934884;29;20207;-69
2022/11/02 07:20:13;;;;;;;8.03;2.70;;;9.00;99.90;;;;;;4938591;29;20214;-69
2022/11/02 07:22:39;;;;;;;15.90;3.37;;;9.00;99.90;;;;;;4939874;29;20696;-68
2022/11/02 07:25:05;;;;;;;7.77;2.73;;;9.10;99.90;;;;;;4934212;29;20205;-69
2022/11/02 07:27:36;;;;;;;3.60;2.00;;;9.30;99.90;;;;;;4939858;29;20202;-69
2022/11/02 07:30:02;;;;;;;3.63;2.43;;;9.40;99.90;;;;;;4938896;29;20210;-69
2022/11/02 07:32:27;;;;;;;6.30;2.23;;;9.60;99.90;;;;;;4939020;29;20697;-68
2022/11/02 07:34:53;;;;;;;4.93;2.33;;;9.70;99.90;;;;;;4934937;29;20659;-68
2022/11/02 07:37:18;;;;;;;6.70;2.33;;;9.80;99.90;;;;;;4939353;29;20206;-68
2022/11/02 07:39:44;;;;;;;5.37;2.10;;;9.90;99.90;;;;;;4932530;29;20299;-69
2022/11/02 07:42:09;;;;;;;7.97;2.80;;;10.00;99.90;;;;;;4938865;28;20217;-67
2022/11/02 07:44:35;;;;;;;7.87;2.10;;;10.20;99.90;;;;;;4934628;29;20203;-69
2022/11/02 07:47:00;;;;;;;5.27;2.13;;;10.40;99.90;;;;;;4934516;29;20199;-67
2022/11/02 07:49:26;;;;;;;6.47;2.30;;;10.60;99.90;;;;;;4938734;29;20720;-68
2022/11/02 07:51:51;;;;;;;6.53;2.27;;;10.60;99.90;;;;;;4934574;29;20210;-68
2022/11/02 07:54:16;;;;;;;6.43;3.33;;;10.70;99.90;;;;;;4937495;28;20578;-72
2022/11/02 07:56:44;;;;;;;8.30;2.53;;;10.90;99.90;;;;;;4939150;29;20790;-72
2022/11/02 07:59:11;;;;;;;6.73;2.37;;;10.90;99.90;;;;;;4938982;29;20923;-71
2022/11/02 08:01:37;;;;;;;4.30;2.07;;;11.00;99.90;;;;;;4939419;29;20463;-72
2022/11/02 08:04:03;;;;;;;6.47;2.30;;;11.10;99.90;;;;;;4939178;29;20203;-72
2022/11/02 08:06:28;;;;;;;5.87;2.50;;;11.10;99.90;;;;;;4936962;29;20693;-71
2022/11/02 08:08:54;;;;;;;10.27;2.67;;;11.00;99.90;;;;;;4937988;29;20200;-69
2022/11/02 08:11:19;;;;;;;7.60;2.17;;;11.10;99.90;;;;;;4938736;29;20210;-69
2022/11/02 08:13:45;;;;;;;6.57;2.43;;;11.10;99.90;;;;;;4938870;29;20204;-68
2022/11/02 08:16:10;;;;;;;5.73;2.27;;;11.10;99.90;;;;;;4938733;29;20247;-68
2022/11/02 08:18:36;;;;;;;3.80;2.20;;;11.20;99.90;;;;;;4937051;29;20199;-67
2022/11/02 08:21:01;;;;;;;6.50;2.23;;;11.30;99.90;;;;;;4938893;29;20738;-68
2022/11/02 08:23:27;;;;;;;3.80;1.80;;;11.50;99.90;;;;;;4938495;29;20733;-68
2022/11/02 08:25:53;;;;;;;11.43;2.50;;;11.50;99.90;;;;;;4938791;29;20234;-68
2022/11/02 08:28:25;;;;;;;3.63;1.97;;;11.50;99.90;;;;;;4934750;29;20257;-68
2022/11/02 08:30:51;;;;;;;6.37;1.83;;;11.50;99.90;;;;;;4929675;29;20208;-68
2022/11/02 08:33:18;;;;;;;3.90;1.83;;;11.50;99.90;;;;;;4938464;29;20644;-68
2022/11/02 08:35:45;;;;;;;5.87;2.50;;;11.50;99.90;;;;;;4938426;29;20621;-67
2022/11/02 08:38:10;;;;;;;7.43;2.60;;;11.50;99.90;;;;;;4929263;29;20219;-70
2022/11/02 08:40:37;;;;;;;9.50;2.60;;;11.50;99.90;;;;;;4931122;29;20586;-69
2022/11/02 08:43:05;;;;;;;11.33;2.77;;;11.50;99.90;;;;;;4925219;29;20246;-69
2022/11/02 08:45:32;;;;;;;8.27;2.83;;;11.40;99.90;;;;;;4929096;29;20204;-69
2022/11/02 08:47:57;;;;;;;7.27;2.33;;;11.50;99.90;;;;;;4929104;29;20330;-69
2022/11/02 08:50:24;;;;;;;4.90;2.00;;;11.40;99.90;;;;;;4929070;29;20675;-68
2022/11/02 08:52:49;;;;;;;5.73;2.20;;;11.40;99.90;;;;;;4927756;28;20221;-68
2022/11/02 08:55:15;;;;;;;3.13;2.27;;;11.30;99.90;;;;;;4926886;29;20208;-68
2022/11/02 08:57:47;;;;;;;7.73;2.43;;;11.30;99.90;;;;;;4932268;29;20215;-70
2022/11/02 09:00:13;;;;;;;5.10;2.50;;;11.40;99.90;;;;;;4932458;29;20563;-70
2022/11/02 09:02:39;;;;;;;6.97;2.00;;;11.50;99.90;;;;;;4932520;29;20214;-70
2022/11/02 09:05:05;;;;;;;6.97;3.00;;;11.60;99.90;;;;;;4934649;29;20206;-70
2022/11/02 09:07:30;;;;;;;8.30;2.67;;;11.60;99.90;;;;;;4929259;29;20200;-71
2022/11/02 09:09:56;;;;;;;8.80;3.00;;;11.70;99.90;;;;;;4932822;29;20931;-71
2022/11/02 09:12:21;;;;;;;4.87;1.97;;;11.90;99.90;;;;;;4933189;29;20652;-70
2022/11/02 09:14:47;;;;;;;6.20;2.40;;;12.00;99.90;;;;;;4932650;29;20241;-70
2022/11/02 09:17:12;;;;;;;7.63;1.90;;;12.10;99.90;;;;;;4932820;29;20580;-71
2022/11/02 09:19:38;;;;;;;8.90;2.10;;;12.30;99.90;;;;;;4923068;29;20274;-68
2022/11/02 09:22:03;;;;;;;8.70;2.67;;;12.40;99.90;;;;;;4926960;29;20203;-70
2022/11/02 09:24:29;;;;;;;10.03;2.50;;;12.50;99.90;;;;;;4923976;29;21130;-71
2022/11/02 09:26:54;;;;;;;9.33;3.03;;;12.60;99.90;;;;;;4924109;29;20201;-68
2022/11/02 09:29:20;;;;;;;6.40;1.77;;;12.70;99.90;;;;;;4924803;29;20285;-68
2022/11/02 09:31:47;;;;;;;11.37;2.17;;;12.80;99.90;;;;;;4929870;29;20209;-74
2022/11/02 09:34:13;;;;;;;5.53;2.10;;;12.90;99.90;;;;;;4932262;29;20215;-75
2022/11/02 09:36:39;;;;;;;3.43;1.53;;;13.00;99.90;;;;;;4931974;29;20208;-75
2022/11/02 09:39:04;;;;;;;7.10;2.00;;;13.00;99.90;;;;;;4909008;29;20988;-77
2022/11/02 09:41:33;;;;;;;7.13;2.30;;;13.10;99.90;;;;;;4928741;29;20203;-74
2022/11/02 09:44:26;;;;;;;3.77;2.10;;;13.20;99.90;;;;;;4922506;29;20674;-72
2022/11/02 09:46:52;;;;;;;6.07;2.60;;;13.20;99.90;;;;;;4923551;29;20208;-73
2022/11/02 09:49:18;;;;;;;12.70;2.73;;;13.30;99.90;;;;;;4923938;29;20209;-73
2022/11/02 09:51:48;;;;;;;5.33;2.50;;;13.40;99.90;;;;;;4922724;29;20209;-74
2022/11/02 09:54:35;;;;;;;5.43;2.30;;;13.40;99.90;;;;;;4924666;29;20210;-71
2022/11/02 09:57:10;;;;;;;4.17;1.97;;;13.50;99.90;;;;;;4928223;29;20216;-73
2022/11/02 09:59:36;;;;;;;5.43;2.03;;;13.60;99.90;;;;;;4935140;29;20216;-71
2022/11/02 10:02:45;;;;;;;8.47;2.67;;;13.50;99.90;;;;;;4929625;29;20231;-74
2022/11/02 10:05:53;;;;;;;6.73;2.53;;;13.70;99.90;;;;;;4944289;28;20281;-80
2022/11/02 10:08:37;;;;;;;7.03;1.70;;;13.80;99.90;;;;;;4940278;29;20651;-71
2022/11/02 10:11:46;;;;;;;7.43;2.00;;;14.00;99.90;;;;;;4926929;29;20292;-69
2022/11/02 10:14:16;;;;;;;6.00;1.67;;;14.10;99.90;;;;;;4923502;29;20532;-71
2022/11/02 10:17:11;;;;;;;9.13;2.30;;;14.30;99.90;;;;;;4925510;29;20230;-72
2022/11/02 10:19:40;;;;;;;3.90;1.70;;;14.30;99.90;;;;;;4923814;29;20756;-69
2022/11/02 10:22:10;;;;;;;3.87;1.90;;;14.40;99.90;;;;;;4925535;29;20213;-71
2022/11/02 10:24:42;;;;;;;4.97;1.57;;;14.50;99.90;;;;;;4926618;29;20209;-70
2022/11/02 10:27:22;;;;;;;8.90;2.00;;;14.50;99.90;;;;;;4930522;29;20206;-72
2022/11/02 10:30:00;;;;;;;7.57;2.27;;;14.60;99.90;;;;;;4935210;29;20270;-71
2022/11/02 10:32:25;;;;;;;12.33;3.03;;;14.70;99.90;;;;;;4932539;29;20201;-70
2022/11/02 10:34:51;;;;;;;4.97;2.23;;;14.80;99.90;;;;;;4931191;29;20658;-71
2022/11/02 10:37:54;;;;;;;9.60;2.17;;;14.90;99.90;;;;;;4925641;29;20265;-86
2022/11/02 10:40:51;;;;;;;3.70;1.90;;;14.90;99.90;;;;;;4940847;29;20218;-69
2022/11/02 10:43:41;;;;;;;9.10;2.20;;;14.90;99.90;;;;;;4938249;29;20202;-70
2022/11/02 10:46:30;;;;;;;9.37;2.20;;;15.00;99.90;;;;;;4934955;29;20677;-71
2022/11/02 10:49:10;;;;;;;6.93;1.73;;;15.20;99.90;;;;;;4926561;29;20233;-71
2022/11/02 10:51:35;;;;;;;7.20;1.80;;;15.30;99.90;;;;;;4924281;29;20233;-73
2022/11/02 10:54:01;;;;;;;5.27;2.13;;;15.30;99.90;;;;;;4923939;29;20690;-73
2022/11/02 10:56:31;;;;;;;11.27;2.57;;;15.40;99.90;;;;;;4921924;29;20199;-76
2022/11/02 10:59:13;;;;;;;7.00;2.30;;;15.40;99.90;;;;;;4924969;29;20210;-72
2022/11/02 11:02:00;;;;;;;7.27;2.57;;;15.50;99.90;;;;;;4926294;29;20283;-69
2022/11/02 11:04:30;;;;;;;8.10;2.20;;;15.60;99.90;;;;;;4913679;29;20639;-69
2022/11/02 11:07:02;;;;;;;6.00;1.40;;;15.70;99.90;;;;;;4930683;29;20206;-69
2022/11/02 11:09:36;;;;;;;7.47;2.43;;;15.80;99.90;;;;;;4929552;29;20677;-73
2022/11/02 11:12:12;;;;;;;5.27;1.53;;;15.90;99.90;;;;;;4919976;29;20203;-72
2022/11/02 11:14:46;;;;;;;8.70;2.60;;;15.80;99.90;;;;;;4923053;29;20207;-70
2022/11/02 11:17:15;;;;;;;6.63;2.00;;;15.80;99.90;;;;;;4920064;29;20202;-68
2022/11/02 11:19:48;;;;;;;5.63;2.00;;;15.80;99.90;;;;;;4918067;29;20997;-71
2022/11/02 11:22:24;;;;;;;6.77;2.10;;;15.70;99.90;;;;;;4921475;29;20203;-71
2022/11/02 11:24:50;;;;;;;10.83;2.37;;;15.70;99.90;;;;;;4920177;29;20677;-69
2022/11/02 11:27:17;;;;;;;7.43;2.90;;;15.70;99.90;;;;;;4925418;29;20202;-71
2022/11/02 11:29:57;;;;;;;5.67;2.60;;;15.60;99.90;;;;;;4925101;29;20368;-71
2022/11/02 11:32:28;;;;;;;6.27;2.10;;;15.60;99.90;;;;;;4925940;29;20210;-70
2022/11/02 11:35:06;;;;;;;5.73;2.27;;;15.60;99.90;;;;;;4894171;29;20257;-69
2022/11/02 11:37:32;;;;;;;8.47;2.50;;;15.50;99.90;;;;;;4924728;29;20228;-70
2022/11/02 11:40:14;;;;;;;10.70;2.07;;;15.50;99.90;;;;;;4929415;29;20240;-71
2022/11/02 11:42:42;;;;;;;5.20;1.87;;;15.60;99.90;;;;;;4929907;29;20258;-78
2022/11/02 11:45:19;;;;;;;10.07;2.13;;;15.50;99.90;;;;;;4937842;29;20669;-81
2022/11/02 11:47:45;;;;;;;4.80;1.83;;;15.40;99.90;;;;;;4928740;29;20238;-68
2022/11/02 11:50:15;;;;;;;2.43;1.83;;;15.30;99.90;;;;;;4920416;29;20211;-67
2022/11/02 11:52:42;;;;;;;5.87;2.27;;;15.80;99.90;;;;;;4917027;29;20202;-68
2022/11/02 11:55:27;;;;;;;7.87;1.97;;;16.20;99.90;;;;;;4921936;29;20741;-67
2022/11/02 11:58:22;;;;;;;3.70;1.57;;;16.10;99.90;;;;;;4922652;29;20685;-69
2022/11/02 12:01:20;;;;;;;5.57;1.67;;;16.10;99.90;;;;;;4923608;29;20242;-67
2022/11/02 12:03:48;;;;;;;6.50;2.57;;;15.90;99.90;;;;;;4879031;29;20217;-69
2022/11/02 12:06:36;;;;;;;7.73;3.17;;;16.00;99.90;;;;;;4930250;29;20201;-67
2022/11/02 12:09:26;;;;;;;5.33;2.17;;;15.80;99.90;;;;;;4922878;29;20576;-68
2022/11/02 12:12:23;;;;;;;4.10;1.80;;;15.90;99.90;;;;;;4918636;29;20210;-69
2022/11/02 12:15:36;;;;;;;5.17;1.93;;;16.00;99.90;;;;;;4928360;29;20286;-67
2022/11/02 12:18:24;;;;;;;8.53;1.87;;;16.20;99.90;;;;;;4848589;29;20276;-67
2022/11/02 12:21:26;;;;;;;5.33;2.50;;;16.20;99.90;;;;;;4849930;29;20237;-68
2022/11/02 12:24:19;;;;;;;4.27;1.93;;;16.10;99.90;;;;;;4899572;29;20220;-72
2022/11/02 12:27:00;;;;;;;2.87;1.30;;;16.10;99.90;;;;;;4922127;29;20218;-70
2022/11/02 12:29:37;;;;;;;6.47;1.80;;;15.90;99.90;;;;;;4921341;29;20233;-70
2022/11/02 12:32:40;;;;;;;10.80;2.03;;;16.00;99.90;;;;;;4924606;29;20217;-67
2022/11/02 12:35:24;;;;;;;6.33;1.83;;;16.00;99.90;;;;;;4921317;29;20203;-68
2022/11/02 12:38:18;;;;;;;5.43;1.60;;;16.10;99.90;;;;;;4924348;29;20213;-68
2022/11/02 12:41:11;;;;;;;7.90;2.13;;;16.70;99.90;;;;;;4927425;29;20229;-68
2022/11/02 12:43:43;;;;;;;11.37;1.80;;;16.70;99.90;;;;;;4927441;29;20202;-69
2022/11/02 12:46:20;;;;;;;2.57;1.40;;;16.50;99.40;;;;;;4930600;29;20301;-68
2022/11/02 12:49:06;;;;;;;4.23;2.00;;;16.50;98.60;;;;;;4923007;29;20296;-68
2022/11/02 12:52:02;;;;;;;2.47;1.30;;;16.80;97.30;;;;;;4928783;29;20202;-68
2022/11/02 12:54:36;;;;;;;2.67;1.60;;;17.30;95.90;;;;;;4927295;28;20469;-68
2022/11/02 12:57:03;;;;;;;2.53;1.50;;;17.70;95.00;;;;;;4918184;29;20227;-67
2022/11/02 12:59:33;;;;;;;2.13;1.30;;;17.90;93.00;;;;;;4921532;29;20230;-67
2022/11/02 13:02:13;;;;;;;4.03;1.30;;;18.20;92.00;;;;;;4929201;29;20202;-67
2022/11/02 13:05:03;;;;;;;4.20;1.37;;;18.40;91.10;;;;;;4925131;29;20577;-70
2022/11/02 13:07:41;;;;;;;3.40;1.17;;;18.20;90.80;;;;;;4918182;29;20199;-69
2022/11/02 13:10:16;;;;;;;7.27;1.57;;;17.90;90.60;;;;;;4918957;29;20517;-68
2022/11/02 13:12:43;;;;;;;2.07;1.33;;;18.10;90.40;;;;;;4918127;29;20670;-69
2022/11/02 13:15:15;;;;;;;5.00;1.47;;;18.20;89.50;;;;;;4920241;29;20785;-70
2022/11/02 13:17:44;;;;;;;3.63;1.30;;;18.40;89.00;;;;;;4923338;29;20262;-79
2022/11/02 13:20:53;;;;;;;5.13;1.60;;;18.40;87.20;;;;;;4928278;29;20717;-69
2022/11/02 13:23:49;;;;;;;6.47;1.33;;;18.70;87.90;;;;;;4868373;29;20207;-69
2022/11/02 13:26:20;;;;;;;4.13;2.03;;;18.80;87.00;;;;;;4922855;29;20301;-68
2022/11/02 13:28:48;;;;;;;4.17;1.10;;;18.30;86.60;;;;;;4928324;29;20208;-69
2022/11/02 13:31:27;;;;;;;3.70;1.30;;;17.40;88.50;;;;;;4928731;29;20636;-69